Terminal Aerodrome Forecast
Issued by NWS Cleveland, OH

Home | Current Version | Previous Version | Text Only | Print | Product List | Glossary On
Versions: 1 2 3 4 5 6 7 8 9 10 11 12 13 14 15 16 17 18
000
FTUS41 KCLE 201800 CCA
TAFMFD
TAF COR
KMFD 201823Z 2018/2118 21012G20KT P6SM OVC100
      TEMPO 2019/2022 2SM SHRA OVC025
     FM202200 25010KT 6SM -SHRA OVC035
     FM210200 26008KT P6SM VCSH OVC025
     FM210700 29008KT 5SM -DZ BR OVC008
     FM211300 31012KT P6SM OVC015=

USA.gov is the U.S. government's official web portal to all federal, state and local government web resources and services.